Time,TemperatureF,DewpointF,PressureIn,WindDirection,WindDirectionDegrees,WindSpeedMPH,WindSpeedGustMPH,Humidity,HourlyPrecipIn,Conditions,Clouds,dailyrainin,SoftwareType,DateUTC
2013-07-31 00:01:00,77.9,72.7,30.15,ENE,68,0.0,0.0,84,0.00,RA,,0.00,WeatherDisplay:10.37,2013-07-31 04:01:00,
2013-07-31 00:02:00,77.9,72.7,30.15,ENE,68,0.0,0.0,84,0.00,RA,,0.00,WeatherDisplay:10.37,2013-07-31 04:02:00,
2013-07-31 00:03:00,77.9,72.7,30.15,ENE,68,0.0,0.0,84,0.00,RA,,0.00,WeatherDisplay:10.37,2013-07-31 04:03:00,
2013-07-31 00:08:00,77.7,72.5,30.15,ENE,68,0.0,0.0,84,0.00,RA,,0.00,WeatherDisplay:10.37,2013-07-31 04:08:00,
2013-07-31 00:13:00,77.7,72.5,30.15,ENE,68,0.0,0.0,84,0.00,FEW,,0.00,WeatherDisplay:10.37,2013-07-31 04:13:00,
2013-07-31 00:18:00,77.7,72.5,30.15,ENE,68,0.0,0.0,84,0.00,FEW,,0.00,WeatherDisplay:10.37,2013-07-31 04:18:00,
2013-07-31 00:23:00,77.7,72.8,30.15,ENE,68,0.0,0.0,85,0.00,FEW,,0.00,WeatherDisplay:10.37,2013-07-31 04:23:00,
2013-07-31 00:28:00,77.7,72.8,30.15,ENE,68,0.0,0.0,85,0.00,FEW,,0.00,WeatherDisplay:10.37,2013-07-31 04:28:00,
2013-07-31 00:33:00,77.5,72.7,30.15,ENE,68,0.0,0.0,85,0.00,FEW,,0.00,WeatherDisplay:10.37,2013-07-31 04:33:00,
2013-07-31 00:38:00,77.5,72.7,30.15,ENE,68,0.0,0.0,85,0.00,FEW,,0.00,WeatherDisplay:10.37,2013-07-31 04:38:00,
2013-07-31 00:43:00,77.5,72.7,30.15,ENE,68,0.0,0.0,85,0.00,FEW,,0.00,WeatherDisplay:10.37,2013-07-31 04:43:00,
2013-07-31 00:48:00,77.5,72.7,30.15,ENE,68,0.0,0.0,85,0.00,FEW,,0.00,WeatherDisplay:10.37,2013-07-31 04:48:00,
2013-07-31 00:53:00,77.5,72.7,30.15,ENE,68,0.0,0.0,85,0.00,FEW,,0.00,WeatherDisplay:10.37,2013-07-31 04:53:00,
2013-07-31 00:58:00,77.5,72.7,30.15,ENE,68,0.0,0.0,85,0.00,FEW,,0.00,WeatherDisplay:10.37,2013-07-31 04:58:00,
2013-07-31 01:03:00,77.4,72.5,30.15,ENE,68,0.0,0.0,85,0.00,FEW,,0.00,WeatherDisplay:10.37,2013-07-31 05:03:00,
2013-07-31 01:08:00,77.4,72.5,30.15,ENE,68,0.0,0.0,85,0.00,FEW,,0.00,WeatherDisplay:10.37,2013-07-31 05:08:00,
2013-07-31 01:13:00,77.4,72.5,30.15,ENE,68,0.0,0.0,85,0.00,FEW,,0.00,WeatherDisplay:10.37,2013-07-31 05:13:00,
2013-07-31 01:18:00,77.4,72.8,30.15,ENE,68,0.0,0.0,86,0.00,FEW,,0.00,WeatherDisplay:10.37,2013-07-31 05:18:00,
2013-07-31 01:23:00,77.2,72.3,30.15,ENE,68,0.0,0.0,85,0.00,FEW,,0.00,WeatherDisplay:10.37,2013-07-31 05:23:00,
2013-07-31 01:28:00,77.2,72.3,30.15,ENE,68,0.0,0.0,85,0.00,FEW,,0.00,WeatherDisplay:10.37,2013-07-31 05:28:00,
2013-07-31 01:33:00,77.2,72.7,30.15,ENE,68,0.0,0.0,86,0.00,FEW,,0.00,WeatherDisplay:10.37,2013-07-31 05:33:00,
2013-07-31 01:38:00,77.2,72.7,30.15,ENE,68,0.0,0.0,86,0.00,FEW,,0.00,WeatherDisplay:10.37,2013-07-31 05:38:00,
2013-07-31 01:43:00,77.4,72.8,30.12,ENE,68,0.0,0.0,86,0.00,FEW,,0.00,WeatherDisplay:10.37,2013-07-31 05:43:00,
2013-07-31 01:48:00,77.4,72.8,30.12,ENE,68,0.0,0.0,86,0.00,FEW,,0.00,WeatherDisplay:10.37,2013-07-31 05:48:00,
2013-07-31 01:53:00,77.4,72.8,30.12,ENE,68,0.0,0.0,86,0.00,FEW,,0.00,WeatherDisplay:10.37,2013-07-31 05:53:00,
2013-07-31 01:58:00,77.4,72.8,30.12,ENE,68,0.0,0.0,86,0.00,FEW,,0.00,WeatherDisplay:10.37,2013-07-31 05:58:00,
2013-07-31 02:03:00,77.4,72.8,30.12,ENE,68,0.0,0.0,86,0.00,FEW,,0.00,WeatherDisplay:10.37,2013-07-31 06:03:00,
2013-07-31 02:08:00,77.4,72.8,30.12,ENE,68,0.0,0.0,86,0.00,FEW,,0.00,WeatherDisplay:10.37,2013-07-31 06:08:00,
2013-07-31 02:13:00,77.4,72.8,30.12,ENE,68,0.0,0.0,86,0.00,FEW,,0.00,WeatherDisplay:10.37,2013-07-31 06:13:00,
2013-07-31 02:18:00,77.4,73.2,30.12,ENE,68,0.0,0.0,87,0.00,FEW,,0.00,WeatherDisplay:10.37,2013-07-31 06:18:00,
2013-07-31 02:23:00,77.4,73.2,30.12,ENE,68,0.0,0.0,87,0.00,FEW,,0.00,WeatherDisplay:10.37,2013-07-31 06:23:00,
2013-07-31 02:28:00,77.5,73.4,30.12,ENE,68,0.0,0.0,87,0.00,FEW,,0.00,WeatherDisplay:10.37,2013-07-31 06:28:00,
2013-07-31 02:33:00,73.8,73.2,29.96,NE,45,0.0,-999.0,98,-99.99,,,0.00,Acu-Link.com,2013-07-31 06:33:00,
2013-07-31 02:38:00,77.5,73.4,30.12,ENE,68,0.0,0.0,87,0.00,FEW,,0.00,WeatherDisplay:10.37,2013-07-31 06:38:00,
2013-07-31 02:43:00,77.5,73.4,30.12,ENE,68,0.0,0.0,87,0.00,FEW,,0.00,WeatherDisplay:10.37,2013-07-31 06:43:00,
2013-07-31 02:48:00,77.5,73.4,30.12,ENE,68,0.0,0.0,87,0.00,FEW,,0.00,WeatherDisplay:10.37,2013-07-31 06:48:00,
2013-07-31 02:53:00,77.5,73.4,30.12,ENE,68,0.0,0.0,87,0.00,FEW,,0.00,WeatherDisplay:10.37,2013-07-31 06:53:00,
2013-07-31 02:58:00,77.5,73.4,30.15,ENE,68,0.0,0.0,87,0.00,FEW,,0.00,WeatherDisplay:10.37,2013-07-31 06:58:00,
2013-07-31 03:03:00,77.5,73.4,30.15,ENE,68,0.0,0.0,87,0.00,FEW,,0.00,WeatherDisplay:10.37,2013-07-31 07:03:00,
2013-07-31 03:08:00,77.5,73.4,30.15,ENE,68,0.0,0.0,87,0.00,FEW,,0.00,WeatherDisplay:10.37,2013-07-31 07:08:00,
2013-07-31 03:13:00,77.5,73.4,30.12,ENE,68,0.0,0.0,87,0.00,FEW,,0.00,WeatherDisplay:10.37,2013-07-31 07:13:00,
2013-07-31 03:18:00,77.5,73.4,30.12,ENE,68,0.0,0.0,87,0.00,FEW,,0.00,WeatherDisplay:10.37,2013-07-31 07:18:00,
2013-07-31 03:23:00,77.5,73.4,30.12,ENE,68,0.0,0.0,87,0.00,FEW,,0.00,WeatherDisplay:10.37,2013-07-31 07:23:00,
2013-07-31 03:28:00,77.5,73.4,30.12,ENE,68,0.0,0.0,87,0.00,FEW,,0.00,WeatherDisplay:10.37,2013-07-31 07:28:00,
2013-07-31 03:33:00,77.5,73.4,30.12,ENE,68,0.0,0.0,87,0.00,FEW,,0.00,WeatherDisplay:10.37,2013-07-31 07:33:00,
2013-07-31 03:38:00,77.5,73.4,30.12,ENE,68,0.0,0.0,87,0.00,FEW,,0.00,WeatherDisplay:10.37,2013-07-31 07:38:00,
2013-07-31 03:43:00,77.5,73.4,30.12,ENE,68,0.0,0.0,87,0.00,FEW,,0.00,WeatherDisplay:10.37,2013-07-31 07:43:00,
2013-07-31 03:48:00,77.5,73.4,30.12,ENE,68,0.0,0.0,87,0.00,FEW,,0.00,WeatherDisplay:10.37,2013-07-31 07:48:00,
2013-07-31 03:53:00,77.5,73.4,30.12,ENE,68,0.0,0.0,87,0.00,FEW,,0.00,WeatherDisplay:10.37,2013-07-31 07:53:00,
2013-07-31 03:58:00,77.5,73.4,30.12,ENE,68,0.0,0.0,87,0.00,FEW,,0.00,WeatherDisplay:10.37,2013-07-31 07:58:00,
2013-07-31 04:03:00,77.5,73.4,30.12,ENE,68,0.0,0.0,87,0.00,FEW,,0.00,WeatherDisplay:10.37,2013-07-31 08:03:00,
2013-07-31 04:08:00,77.5,73.4,30.12,ENE,68,0.0,0.0,87,0.00,FEW,,0.00,WeatherDisplay:10.37,2013-07-31 08:08:00,
2013-07-31 04:13:00,77.5,73.4,30.12,ENE,68,0.0,0.0,87,0.00,FEW,,0.00,WeatherDisplay:10.37,2013-07-31 08:13:00,
2013-07-31 04:18:00,77.5,73.4,30.12,ENE,68,0.0,0.0,87,0.00,FEW,,0.00,WeatherDisplay:10.37,2013-07-31 08:18:00,
2013-07-31 04:23:00,77.5,73.4,30.12,ENE,68,0.0,0.0,87,0.00,FEW,,0.00,WeatherDisplay:10.37,2013-07-31 08:23:00,
2013-07-31 04:28:00,77.5,73.4,30.12,ENE,68,0.0,0.0,87,0.00,FEW,,0.00,WeatherDisplay:10.37,2013-07-31 08:28:00,
2013-07-31 04:33:00,77.7,73.5,30.12,ENE,68,0.0,0.0,87,0.00,FEW,,0.00,WeatherDisplay:10.37,2013-07-31 08:33:00,
2013-07-31 04:38:00,77.7,73.9,30.12,ENE,68,0.0,0.0,88,0.00,FEW,,0.00,WeatherDisplay:10.37,2013-07-31 08:38:00,
2013-07-31 04:43:00,77.7,73.9,30.15,ENE,68,4.6,4.6,88,0.00,FEW,,0.00,WeatherDisplay:10.37,2013-07-31 08:43:00,
2013-07-31 04:48:00,77.7,73.9,30.15,ENE,68,5.8,5.8,88,0.00,FEW,,0.00,WeatherDisplay:10.37,2013-07-31 08:48:00,
2013-07-31 04:53:00,77.7,73.9,30.15,ENE,68,4.6,0.0,88,0.00,FEW,,0.00,WeatherDisplay:10.37,2013-07-31 08:53:00,
2013-07-31 04:58:00,77.7,73.9,30.12,ENE,68,3.9,0.0,88,0.00,FEW,,0.00,WeatherDisplay:10.37,2013-07-31 08:58:00,
2013-07-31 05:04:00,77.9,74.1,30.12,ENE,68,2.3,0.0,88,0.00,FEW,,0.00,WeatherDisplay:10.37,2013-07-31 09:04:00,
2013-07-31 05:09:00,77.9,74.1,30.12,ENE,68,2.3,0.0,88,0.00,FEW,,0.00,WeatherDisplay:10.37,2013-07-31 09:09:00,
2013-07-31 05:14:00,77.9,74.1,30.15,ENE,68,4.6,4.6,88,0.00,FEW,,0.00,WeatherDisplay:10.37,2013-07-31 09:14:00,
2013-07-31 05:19:00,77.9,73.7,30.15,ENE,68,0.0,0.0,87,0.00,FEW,,0.00,WeatherDisplay:10.37,2013-07-31 09:19:00,
2013-07-31 05:24:00,77.9,73.7,30.15,ENE,68,2.3,0.0,87,0.00,FEW,,0.00,WeatherDisplay:10.37,2013-07-31 09:24:00,
2013-07-31 05:29:00,77.9,73.7,30.15,ENE,68,2.3,2.3,87,0.00,FEW,,0.00,WeatherDisplay:10.37,2013-07-31 09:29:00,
2013-07-31 05:34:00,77.7,73.5,30.15,ENE,68,2.3,0.0,87,0.00,FEW,,0.00,WeatherDisplay:10.37,2013-07-31 09:34:00,
2013-07-31 05:39:00,77.7,73.5,30.15,ENE,68,5.8,5.8,87,0.00,FEW,,0.00,WeatherDisplay:10.37,2013-07-31 09:39:00,
2013-07-31 05:44:00,77.7,73.5,30.15,ENE,68,0.0,0.0,87,0.00,FEW,,0.00,WeatherDisplay:10.37,2013-07-31 09:44:00,
2013-07-31 05:49:00,77.7,73.5,30.15,ENE,68,5.8,5.8,87,0.00,FEW,,0.00,WeatherDisplay:10.37,2013-07-31 09:49:00,
2013-07-31 05:54:00,77.9,73.7,30.15,ENE,68,0.0,0.0,87,0.00,FEW,,0.00,WeatherDisplay:10.37,2013-07-31 09:54:00,
2013-07-31 05:59:00,77.9,73.7,30.15,ENE,68,0.0,0.0,87,0.00,FEW,,0.00,WeatherDisplay:10.37,2013-07-31 09:59:00,
2013-07-31 06:04:00,77.9,73.7,30.15,ENE,68,0.0,0.0,87,0.00,FEW,,0.00,WeatherDisplay:10.37,2013-07-31 10:04:00,
2013-07-31 06:09:00,77.9,73.7,30.15,ENE,68,0.0,0.0,87,0.00,FEW,,0.00,WeatherDisplay:10.37,2013-07-31 10:09:00,
2013-07-31 06:14:00,77.9,73.7,30.15,ENE,68,0.0,0.0,87,0.00,FEW,,0.00,WeatherDisplay:10.37,2013-07-31 10:14:00,
2013-07-31 06:19:00,77.9,73.7,30.15,ENE,68,0.0,0.0,87,0.00,FEW,,0.00,WeatherDisplay:10.37,2013-07-31 10:19:00,
2013-07-31 06:24:00,77.9,73.7,30.15,ENE,68,0.0,0.0,87,0.00,FEW,,0.00,WeatherDisplay:10.37,2013-07-31 10:24:00,
2013-07-31 06:29:00,77.9,73.7,30.15,ENE,68,0.0,0.0,87,0.00,FEW,,0.00,WeatherDisplay:10.37,2013-07-31 10:29:00,
2013-07-31 06:34:00,77.9,73.7,30.15,ENE,68,0.0,0.0,87,0.00,FEW,,0.00,WeatherDisplay:10.37,2013-07-31 10:34:00,
2013-07-31 06:39:00,77.7,73.5,30.15,ENE,68,0.0,0.0,87,0.00,FEW,,0.00,WeatherDisplay:10.37,2013-07-31 10:39:00,
2013-07-31 06:44:00,77.7,73.5,30.15,ENE,68,0.0,0.0,87,0.00,FEW,,0.00,WeatherDisplay:10.37,2013-07-31 10:44:00,
2013-07-31 06:49:00,77.7,73.5,30.15,ENE,68,0.0,0.0,87,0.00,FEW,,0.00,WeatherDisplay:10.37,2013-07-31 10:49:00,
2013-07-31 06:54:00,77.7,73.5,30.15,ENE,68,0.0,0.0,87,0.00,FEW,,0.00,WeatherDisplay:10.37,2013-07-31 10:54:00,
2013-07-31 06:59:00,77.7,73.5,30.15,ENE,68,0.0,0.0,87,0.00,FEW,,0.00,WeatherDisplay:10.37,2013-07-31 10:59:00,
2013-07-31 07:04:00,77.7,73.5,30.15,ENE,68,0.0,0.0,87,0.00,FEW,,0.00,WeatherDisplay:10.37,2013-07-31 11:04:00,
2013-07-31 07:09:00,77.7,73.5,30.15,ENE,68,0.0,0.0,87,0.00,FEW,,0.00,WeatherDisplay:10.37,2013-07-31 11:09:00,
2013-07-31 07:14:00,77.9,73.7,30.15,ENE,68,0.0,0.0,87,0.00,FEW,,0.00,WeatherDisplay:10.37,2013-07-31 11:14:00,
2013-07-31 07:19:00,77.9,73.7,30.15,ENE,68,0.0,0.0,87,0.00,FEW,,0.00,WeatherDisplay:10.37,2013-07-31 11:19:00,
2013-07-31 07:24:00,77.9,73.7,30.15,ENE,68,0.0,0.0,87,0.00,FEW,,0.00,WeatherDisplay:10.37,2013-07-31 11:24:00,
2013-07-31 07:29:00,77.9,73.7,30.15,ENE,68,0.0,0.0,87,0.00,FEW,,0.00,WeatherDisplay:10.37,2013-07-31 11:29:00,
2013-07-31 07:34:00,78.1,73.9,30.15,ENE,68,0.0,0.0,87,0.00,FEW,,0.00,WeatherDisplay:10.37,2013-07-31 11:34:00,
2013-07-31 07:39:00,78.3,74.4,30.15,ENE,68,3.5,0.0,88,0.00,FEW,,0.00,WeatherDisplay:10.37,2013-07-31 11:39:00,
2013-07-31 07:44:00,78.4,74.6,30.15,ENE,68,2.3,0.0,88,0.00,FEW,,0.00,WeatherDisplay:10.37,2013-07-31 11:44:00,
2013-07-31 07:49:00,78.6,74.8,30.15,ENE,68,5.8,5.8,88,0.00,FEW,,0.00,WeatherDisplay:10.37,2013-07-31 11:49:00,
2013-07-31 07:54:00,78.6,74.4,30.15,ENE,68,4.6,0.0,87,0.00,FEW,,0.00,WeatherDisplay:10.37,2013-07-31 11:54:00,
2013-07-31 07:59:00,78.8,74.6,30.15,ENE,68,0.0,0.0,87,0.00,FEW,,0.00,WeatherDisplay:10.37,2013-07-31 11:59:00,
2013-07-31 08:04:00,78.8,74.6,30.15,ENE,68,0.0,0.0,87,0.00,FEW,,0.00,WeatherDisplay:10.37,2013-07-31 12:04:00,
2013-07-31 08:09:00,78.8,74.6,30.15,ENE,68,7.1,0.0,87,0.00,FEW,,0.00,WeatherDisplay:10.37,2013-07-31 12:09:00,
2013-07-31 08:14:00,79.0,74.8,30.18,ENE,68,3.5,0.0,87,0.00,FEW,,0.00,WeatherDisplay:10.37,2013-07-31 12:14:00,
2013-07-31 08:19:00,79.3,75.1,30.18,ENE,68,4.6,0.0,87,0.00,FEW,,0.00,WeatherDisplay:10.37,2013-07-31 12:19:00,
2013-07-31 08:24:00,79.5,75.3,30.18,ENE,68,0.0,0.0,87,0.00,FEW,,0.00,WeatherDisplay:10.37,2013-07-31 12:24:00,
2013-07-31 08:29:00,79.7,75.1,30.18,ENE,68,0.0,0.0,86,0.00,FEW,,0.00,WeatherDisplay:10.37,2013-07-31 12:29:00,
2013-07-31 08:34:00,80.1,75.5,30.18,ENE,68,6.9,6.9,86,0.00,FEW,,0.00,WeatherDisplay:10.37,2013-07-31 12:34:00,
2013-07-31 08:39:00,80.2,75.7,30.18,ENE,68,5.8,5.8,86,0.00,FEW,,0.00,WeatherDisplay:10.37,2013-07-31 12:39:00,
2013-07-31 08:44:00,80.4,75.5,30.15,ENE,68,9.9,9.9,85,0.00,FEW,,0.00,WeatherDisplay:10.37,2013-07-31 12:44:00,
2013-07-31 08:49:00,80.6,75.7,30.15,ENE,68,5.8,5.8,85,0.00,FEW,,0.00,WeatherDisplay:10.37,2013-07-31 12:49:00,
2013-07-31 08:54:00,80.8,75.5,30.15,ENE,68,6.7,6.7,84,0.00,FEW,,0.00,WeatherDisplay:10.37,2013-07-31 12:54:00,
2013-07-31 08:59:00,81.1,75.8,30.18,North,0,5.8,5.8,84,0.00,FEW,,0.00,WeatherDisplay:10.37,2013-07-31 12:59:00,
2013-07-31 09:04:00,81.3,76.0,30.18,East,90,5.8,0.0,84,0.00,FEW,,0.00,WeatherDisplay:10.37,2013-07-31 13:04:00,
2013-07-31 09:09:00,81.3,75.7,30.18,ENE,68,8.1,8.1,83,0.00,FEW,,0.00,WeatherDisplay:10.37,2013-07-31 13:09:00,
2013-07-31 09:14:00,81.5,75.5,30.15,NE,45,8.1,8.1,82,0.00,FEW,,0.00,WeatherDisplay:10.37,2013-07-31 13:14:00,
2013-07-31 09:19:00,81.9,75.8,30.15,NNE,22,11.5,11.5,82,0.00,FEW,,0.00,WeatherDisplay:10.37,2013-07-31 13:19:00,
2013-07-31 09:24:00,82.0,76.0,30.15,East,90,8.1,8.1,82,0.00,FEW,,0.00,WeatherDisplay:10.37,2013-07-31 13:24:00,
2013-07-31 09:30:00,82.0,75.6,30.15,ENE,68,10.4,10.4,81,0.00,FEW,,0.00,WeatherDisplay:10.37,2013-07-31 13:30:00,
2013-07-31 09:35:00,82.0,74.9,30.15,East,90,6.9,6.9,79,0.00,FEW,,0.00,WeatherDisplay:10.37,2013-07-31 13:35:00,
2013-07-31 09:40:00,82.0,74.9,30.15,ENE,68,8.1,8.1,79,0.00,FEW,,0.00,WeatherDisplay:10.37,2013-07-31 13:40:00,
2013-07-31 09:45:00,82.0,74.5,30.15,East,90,8.1,8.1,78,0.00,FEW,,0.00,WeatherDisplay:10.37,2013-07-31 13:45:00,
2013-07-31 09:50:00,82.0,74.1,30.15,ENE,68,8.1,8.1,77,0.00,FEW,,0.00,WeatherDisplay:10.37,2013-07-31 13:50:00,
2013-07-31 09:55:00,82.0,73.7,30.15,NNE,22,8.1,8.1,76,0.00,FEW,,0.00,WeatherDisplay:10.37,2013-07-31 13:55:00,
2013-07-31 10:00:00,82.0,73.7,30.18,East,90,5.3,0.0,76,0.00,FEW,,0.00,WeatherDisplay:10.37,2013-07-31 14:00:00,
2013-07-31 10:05:00,81.9,73.5,30.18,ENE,68,8.5,8.5,76,0.00,FEW,,0.00,WeatherDisplay:10.37,2013-07-31 14:05:00,
2013-07-31 10:10:00,82.0,73.3,30.18,ENE,68,9.2,9.2,75,0.00,FEW,,0.00,WeatherDisplay:10.37,2013-07-31 14:10:00,
2013-07-31 10:15:00,82.4,72.9,30.18,ENE,68,10.8,10.8,73,0.00,FEW,,0.00,WeatherDisplay:10.37,2013-07-31 14:15:00,
2013-07-31 10:20:00,82.4,71.6,30.18,ENE,68,5.8,5.8,70,0.00,FEW,,0.00,WeatherDisplay:10.37,2013-07-31 14:20:00,
2013-07-31 10:25:00,82.2,71.5,30.18,ENE,68,6.7,0.0,70,0.00,FEW,,0.00,WeatherDisplay:10.37,2013-07-31 14:25:00,
2013-07-31 10:30:00,81.9,70.7,30.18,ENE,68,5.8,5.8,69,0.00,FEW,,0.00,WeatherDisplay:10.37,2013-07-31 14:30:00,
2013-07-31 10:35:00,82.0,70.9,30.18,NE,45,4.6,4.6,69,0.00,FEW,,0.00,WeatherDisplay:10.37,2013-07-31 14:35:00,
2013-07-31 10:40:00,81.9,70.7,30.18,North,0,5.8,5.8,69,0.00,FEW,,0.00,WeatherDisplay:10.37,2013-07-31 14:40:00,
2013-07-31 10:45:00,81.7,70.5,30.18,NNE,22,5.8,5.8,69,0.00,FEW,,0.00,WeatherDisplay:10.37,2013-07-31 14:45:00,
2013-07-31 10:50:00,81.5,69.0,30.18,ENE,68,6.9,6.9,66,0.00,FEW,,0.00,WeatherDisplay:10.37,2013-07-31 14:50:00,
2013-07-31 10:55:00,81.7,69.2,30.18,NE,45,5.8,0.0,66,0.00,FEW,,0.00,WeatherDisplay:10.37,2013-07-31 14:55:00,
2013-07-31 11:00:00,81.7,69.2,30.15,NE,45,8.1,8.1,66,0.00,FEW,,0.00,WeatherDisplay:10.37,2013-07-31 15:00:00,
2013-07-31 11:05:00,81.5,69.0,30.15,East,90,3.5,0.0,66,0.00,FEW,,0.00,WeatherDisplay:10.37,2013-07-31 15:05:00,
2013-07-31 11:10:00,82.2,70.2,30.15,NE,45,5.8,5.8,67,0.00,FEW,,0.00,WeatherDisplay:10.37,2013-07-31 15:10:00,
2013-07-31 11:15:00,82.8,70.7,30.15,NNW,338,5.8,5.8,67,0.00,FEW,,0.00,WeatherDisplay:10.37,2013-07-31 15:15:00,
2013-07-31 11:20:00,83.1,69.7,30.15,NE,45,8.1,8.1,64,0.00,FEW,,0.00,WeatherDisplay:10.37,2013-07-31 15:20:00,
2013-07-31 11:25:00,83.3,68.9,30.15,NNW,338,5.8,5.8,62,0.00,FEW,,0.00,WeatherDisplay:10.37,2013-07-31 15:25:00,
2013-07-31 11:30:00,83.8,68.5,30.18,ENE,68,6.9,6.9,60,0.00,FEW,,0.00,WeatherDisplay:10.37,2013-07-31 15:30:00,
2013-07-31 11:35:00,84.2,66.8,30.18,NNE,22,10.4,10.4,56,0.00,FEW,,0.00,WeatherDisplay:10.37,2013-07-31 15:35:00,
2013-07-31 11:40:00,83.8,65.4,30.18,NW,315,5.8,5.8,54,0.00,FEW,,0.00,WeatherDisplay:10.37,2013-07-31 15:40:00,
2013-07-31 11:45:00,83.5,63.4,30.18,NNW,338,5.8,0.0,51,0.00,FEW,,0.00,WeatherDisplay:10.37,2013-07-31 15:45:00,
2013-07-31 11:50:00,82.8,62.2,30.18,ENE,68,8.1,8.1,50,0.00,FEW,,0.00,WeatherDisplay:10.37,2013-07-31 15:50:00,
2013-07-31 11:55:00,82.4,61.9,30.18,ENE,68,7.1,0.0,50,0.00,FEW,,0.00,WeatherDisplay:10.37,2013-07-31 15:55:00,
2013-07-31 12:00:00,82.2,61.2,30.18,SE,135,5.8,5.8,49,0.00,FEW,,0.00,WeatherDisplay:10.37,2013-07-31 16:00:00,
2013-07-31 12:05:00,82.0,60.4,30.18,NNE,22,3.5,3.5,48,0.00,FEW,,0.00,WeatherDisplay:10.37,2013-07-31 16:05:00,
2013-07-31 12:10:00,81.7,61.2,30.18,ESE,112,6.7,0.0,50,0.00,FEW,,0.00,WeatherDisplay:10.37,2013-07-31 16:10:00,
2013-07-31 12:15:00,82.4,60.7,30.15,ENE,68,5.8,5.8,48,0.00,FEW,,0.00,WeatherDisplay:10.37,2013-07-31 16:15:00,
2013-07-31 12:20:00,82.6,60.9,30.15,NNE,22,10.4,10.4,48,0.00,FEW,,0.00,WeatherDisplay:10.37,2013-07-31 16:20:00,
2013-07-31 12:25:00,83.1,60.8,30.15,ENE,68,5.8,5.8,47,0.00,FEW,,0.00,WeatherDisplay:10.37,2013-07-31 16:25:00,
2013-07-31 12:30:00,83.5,61.1,30.15,NNW,338,6.2,6.2,47,0.00,FEW,,0.00,WeatherDisplay:10.37,2013-07-31 16:30:00,
2013-07-31 12:35:00,83.5,61.1,30.15,West,270,2.3,0.0,47,0.00,FEW,,0.00,WeatherDisplay:10.37,2013-07-31 16:35:00,
2013-07-31 12:40:00,83.3,61.0,30.15,NW,315,8.1,8.1,47,0.00,FEW,,0.00,WeatherDisplay:10.37,2013-07-31 16:40:00,
2013-07-31 12:45:00,83.7,61.3,30.15,NE,45,9.2,9.2,47,0.00,FEW,,0.00,WeatherDisplay:10.37,2013-07-31 16:45:00,
2013-07-31 12:50:00,83.8,61.5,30.15,ENE,68,8.1,8.1,47,0.00,FEW,,0.00,WeatherDisplay:10.37,2013-07-31 16:50:00,
2013-07-31 12:55:00,83.8,61.5,30.15,NNW,338,2.3,0.0,47,0.00,FEW,,0.00,WeatherDisplay:10.37,2013-07-31 16:55:00,
2013-07-31 13:00:00,83.7,61.3,30.15,ENE,68,0.0,0.0,47,0.00,FEW,,0.00,WeatherDisplay:10.37,2013-07-31 17:00:00,
2013-07-31 13:05:00,83.8,61.5,30.15,ESE,112,5.8,5.8,47,0.00,FEW,,0.00,WeatherDisplay:10.37,2013-07-31 17:05:00,
2013-07-31 13:10:00,83.3,61.0,30.15,NNW,338,3.5,0.0,47,0.00,FEW,,0.00,WeatherDisplay:10.37,2013-07-31 17:10:00,
2013-07-31 13:15:00,83.1,60.8,30.15,NNW,338,4.6,4.6,47,0.00,FEW,,0.00,WeatherDisplay:10.37,2013-07-31 17:15:00,
2013-07-31 13:20:00,82.8,60.5,30.15,NE,45,4.8,4.8,47,0.00,FEW,,0.00,WeatherDisplay:10.37,2013-07-31 17:20:00,
2013-07-31 13:25:00,82.6,60.3,30.15,ENE,68,5.8,5.8,47,0.00,FEW,,0.00,WeatherDisplay:10.37,2013-07-31 17:25:00,
2013-07-31 13:30:00,82.4,60.7,30.15,ENE,68,3.5,3.5,48,0.00,FEW,,0.00,WeatherDisplay:10.37,2013-07-31 17:30:00,
2013-07-31 13:35:00,82.2,61.7,30.15,NNE,22,5.8,5.8,50,0.00,FEW,,0.00,WeatherDisplay:10.37,2013-07-31 17:35:00,
2013-07-31 13:40:00,82.2,61.7,30.15,North,0,4.6,4.6,50,0.00,FEW,,0.00,WeatherDisplay:10.37,2013-07-31 17:40:00,
2013-07-31 13:45:00,82.0,62.1,30.15,SE,135,7.6,0.0,51,0.00,FEW,,0.00,WeatherDisplay:10.37,2013-07-31 17:45:00,
2013-07-31 13:50:00,82.0,62.7,30.15,NNE,22,0.0,0.0,52,0.00,FEW,,0.00,WeatherDisplay:10.37,2013-07-31 17:50:00,
2013-07-31 13:55:00,82.6,63.7,30.15,East,90,3.5,3.5,53,0.00,FEW,,0.00,WeatherDisplay:10.37,2013-07-31 17:55:00,
2013-07-31 14:00:00,83.3,62.1,30.15,South,180,8.1,8.1,49,0.00,FEW,,0.00,WeatherDisplay:10.37,2013-07-31 18:00:00,
2013-07-31 14:05:00,83.7,61.9,30.15,ESE,112,11.5,11.5,48,0.00,FEW,,0.00,WeatherDisplay:10.37,2013-07-31 18:05:00,
2013-07-31 14:10:00,83.8,61.5,30.15,WNW,292,8.1,8.1,47,0.00,FEW,,0.00,WeatherDisplay:10.37,2013-07-31 18:10:00,
2013-07-31 14:15:00,83.7,61.3,30.15,ESE,112,5.8,5.8,47,0.00,FEW,,0.00,WeatherDisplay:10.37,2013-07-31 18:15:00,
2013-07-31 14:20:00,84.0,61.6,30.15,NNE,22,7.1,7.1,47,0.00,FEW,,0.00,WeatherDisplay:10.37,2013-07-31 18:20:00,
2013-07-31 14:25:00,84.4,61.9,30.15,South,180,8.1,8.1,47,0.00,FEW,,0.00,WeatherDisplay:10.37,2013-07-31 18:25:00,
2013-07-31 14:30:00,84.7,62.3,30.12,South,180,6.9,6.9,47,0.00,FEW,,0.00,WeatherDisplay:10.37,2013-07-31 18:30:00,
2013-07-31 14:36:00,84.7,62.3,30.12,West,270,8.1,8.1,47,0.00,FEW,,0.00,WeatherDisplay:10.37,2013-07-31 18:36:00,
2013-07-31 14:40:00,84.7,62.3,30.12,ENE,68,12.7,12.7,47,0.00,FEW,,0.00,WeatherDisplay:10.37,2013-07-31 18:40:00,
2013-07-31 14:46:00,84.7,62.3,30.12,NE,45,5.8,5.8,47,0.00,FEW,,0.00,WeatherDisplay:10.37,2013-07-31 18:46:00,
2013-07-31 14:51:00,84.6,62.1,30.12,South,180,6.9,0.0,47,0.00,FEW,,0.00,WeatherDisplay:10.37,2013-07-31 18:51:00,
2013-07-31 14:56:00,84.6,62.1,30.12,East,90,4.6,0.0,47,0.00,FEW,,0.00,WeatherDisplay:10.37,2013-07-31 18:56:00,
2013-07-31 15:01:00,84.4,61.9,30.12,East,90,9.2,9.2,47,0.00,FEW,,0.00,WeatherDisplay:10.37,2013-07-31 19:01:00,
2013-07-31 15:06:00,84.6,62.1,30.12,South,180,5.8,5.8,47,0.00,FEW,,0.00,WeatherDisplay:10.37,2013-07-31 19:06:00,
2013-07-31 15:11:00,84.4,61.9,30.12,NE,45,5.8,5.8,47,0.00,FEW,,0.00,WeatherDisplay:10.37,2013-07-31 19:11:00,
2013-07-31 15:16:00,84.2,61.8,30.12,NE,45,3.5,3.5,47,0.00,FEW,,0.00,WeatherDisplay:10.37,2013-07-31 19:16:00,
2013-07-31 15:21:00,84.0,61.6,30.12,ESE,112,9.2,9.2,47,0.00,FEW,,0.00,WeatherDisplay:10.37,2013-07-31 19:21:00,
2013-07-31 15:26:00,84.0,61.6,30.12,East,90,5.8,5.8,47,0.00,FEW,,0.00,WeatherDisplay:10.37,2013-07-31 19:26:00,
2013-07-31 15:31:00,84.0,61.6,30.12,West,270,5.8,5.8,47,0.00,FEW,,0.00,WeatherDisplay:10.37,2013-07-31 19:31:00,
2013-07-31 15:36:00,83.8,61.5,30.12,West,270,6.9,6.9,47,0.00,FEW,,0.00,WeatherDisplay:10.37,2013-07-31 19:36:00,
2013-07-31 15:41:00,83.7,61.3,30.12,SE,135,3.9,3.9,47,0.00,FEW,,0.00,WeatherDisplay:10.37,2013-07-31 19:41:00,
2013-07-31 15:46:00,83.5,61.1,30.12,South,180,5.8,5.8,47,0.00,FEW,,0.00,WeatherDisplay:10.37,2013-07-31 19:46:00,
2013-07-31 15:51:00,83.3,61.0,30.12,West,270,3.9,3.9,47,0.00,FEW,,0.00,WeatherDisplay:10.37,2013-07-31 19:51:00,
2013-07-31 15:56:00,83.3,61.0,30.12,South,180,2.8,0.0,47,0.00,FEW,,0.00,WeatherDisplay:10.37,2013-07-31 19:56:00,
2013-07-31 16:01:00,83.1,60.8,30.12,West,270,2.3,2.3,47,0.00,FEW,,0.00,WeatherDisplay:10.37,2013-07-31 20:01:00,
2013-07-31 16:06:00,82.8,60.5,30.12,West,270,3.5,3.5,47,0.00,FEW,,0.00,WeatherDisplay:10.37,2013-07-31 20:06:00,
2013-07-31 16:11:00,82.8,60.5,30.12,WNW,292,4.6,4.6,47,0.00,FEW,,0.00,WeatherDisplay:10.37,2013-07-31 20:11:00,
2013-07-31 16:16:00,82.8,60.5,30.09,South,180,3.5,3.5,47,0.00,FEW,,0.00,WeatherDisplay:10.37,2013-07-31 20:16:00,
2013-07-31 16:21:00,82.8,60.5,30.09,WNW,292,3.5,3.5,47,0.00,FEW,,0.00,WeatherDisplay:10.37,2013-07-31 20:21:00,
2013-07-31 16:26:00,82.8,60.5,30.09,NW,315,0.0,0.0,47,0.00,FEW,,0.00,WeatherDisplay:10.37,2013-07-31 20:26:00,
2013-07-31 16:31:00,82.9,60.6,30.09,North,0,6.7,6.7,47,0.00,FEW,,0.00,WeatherDisplay:10.37,2013-07-31 20:31:00,
2013-07-31 16:36:00,82.8,60.5,30.09,NNW,338,2.3,0.0,47,0.00,FEW,,0.00,WeatherDisplay:10.37,2013-07-31 20:36:00,
2013-07-31 16:41:00,82.6,60.3,30.09,West,270,4.8,4.8,47,0.00,FEW,,0.00,WeatherDisplay:10.37,2013-07-31 20:41:00,
2013-07-31 16:46:00,82.6,60.3,30.09,North,0,8.5,8.5,47,0.00,FEW,,0.00,WeatherDisplay:10.37,2013-07-31 20:46:00,
2013-07-31 16:51:00,82.6,60.3,30.09,WNW,292,2.3,0.0,47,0.00,FEW,,0.00,WeatherDisplay:10.37,2013-07-31 20:51:00,
2013-07-31 16:56:00,82.4,60.1,30.09,East,90,3.5,0.0,47,0.00,FEW,,0.00,WeatherDisplay:10.37,2013-07-31 20:56:00,
2013-07-31 17:01:00,82.6,60.3,30.09,WNW,292,4.6,4.6,47,0.00,FEW,,0.00,WeatherDisplay:10.37,2013-07-31 21:01:00,
2013-07-31 17:07:00,82.6,60.3,30.09,West,270,4.6,4.6,47,0.00,FEW,,0.00,WeatherDisplay:10.37,2013-07-31 21:07:00,
2013-07-31 17:12:00,82.6,60.3,30.09,West,270,3.5,3.5,47,0.00,FEW,,0.00,WeatherDisplay:10.37,2013-07-31 21:12:00,
2013-07-31 17:17:00,82.6,60.3,30.09,NNW,338,2.3,0.0,47,0.00,FEW,,0.00,WeatherDisplay:10.37,2013-07-31 21:17:00,
2013-07-31 17:22:00,82.6,60.3,30.09,West,270,8.1,8.1,47,0.00,FEW,,0.00,WeatherDisplay:10.37,2013-07-31 21:22:00,
2013-07-31 17:27:00,82.8,60.5,30.09,North,0,8.1,8.1,47,0.00,FEW,,0.00,WeatherDisplay:10.37,2013-07-31 21:27:00,
2013-07-31 17:32:00,82.8,60.5,30.06,West,270,4.8,4.8,47,0.00,FEW,,0.00,WeatherDisplay:10.37,2013-07-31 21:32:00,
2013-07-31 17:37:00,82.8,60.5,30.06,South,180,4.6,4.6,47,0.00,FEW,,0.00,WeatherDisplay:10.37,2013-07-31 21:37:00,
2013-07-31 17:42:00,82.8,60.5,30.06,South,180,4.6,4.6,47,0.00,FEW,,0.00,WeatherDisplay:10.37,2013-07-31 21:42:00,
2013-07-31 17:47:00,82.8,60.5,30.06,South,180,3.9,3.9,47,0.00,FEW,,0.00,WeatherDisplay:10.37,2013-07-31 21:47:00,
2013-07-31 17:52:00,82.6,60.3,30.06,WNW,292,5.8,5.8,47,0.00,FEW,,0.00,WeatherDisplay:10.37,2013-07-31 21:52:00,
2013-07-31 17:57:00,82.4,60.1,30.06,WNW,292,2.8,0.0,47,0.00,FEW,,0.00,WeatherDisplay:10.37,2013-07-31 21:57:00,
2013-07-31 18:02:00,82.4,60.1,30.06,West,270,4.6,4.6,47,0.00,FEW,,0.00,WeatherDisplay:10.37,2013-07-31 22:02:00,
2013-07-31 18:07:00,82.4,60.1,30.06,West,270,4.6,4.6,47,0.00,FEW,,0.00,WeatherDisplay:10.37,2013-07-31 22:07:00,
2013-07-31 18:12:00,82.4,60.1,30.06,South,180,3.5,3.5,47,0.00,FEW,,0.00,WeatherDisplay:10.37,2013-07-31 22:12:00,
2013-07-31 18:17:00,82.4,60.1,30.06,West,270,4.6,4.6,47,0.00,FEW,,0.00,WeatherDisplay:10.37,2013-07-31 22:17:00,
2013-07-31 18:22:00,82.2,60.0,30.06,WNW,292,4.6,0.0,47,0.00,FEW,,0.00,WeatherDisplay:10.37,2013-07-31 22:22:00,
2013-07-31 18:28:00,82.2,60.0,30.06,SSE,158,8.5,0.0,47,0.00,FEW,,0.00,WeatherDisplay:10.37,2013-07-31 22:28:00,
2013-07-31 18:33:00,82.2,60.0,30.06,West,270,3.5,3.5,47,0.00,FEW,,0.00,WeatherDisplay:10.37,2013-07-31 22:33:00,
2013-07-31 18:38:00,82.2,60.0,30.06,South,180,4.6,4.6,47,0.00,FEW,,0.00,WeatherDisplay:10.37,2013-07-31 22:38:00,
2013-07-31 18:43:00,82.2,60.0,30.06,WNW,292,4.6,4.6,47,0.00,FEW,,0.00,WeatherDisplay:10.37,2013-07-31 22:43:00,
2013-07-31 18:48:00,82.0,59.8,30.09,West,270,3.5,0.0,47,0.00,FEW,,0.00,WeatherDisplay:10.37,2013-07-31 22:48:00,
2013-07-31 18:53:00,82.0,59.8,30.09,South,180,4.6,0.0,47,0.00,FEW,,0.00,WeatherDisplay:10.37,2013-07-31 22:53:00,
2013-07-31 18:58:00,82.0,59.8,30.09,West,270,3.5,0.0,47,0.00,FEW,,0.00,WeatherDisplay:10.37,2013-07-31 22:58:00,
2013-07-31 19:03:00,81.9,59.7,30.06,West,270,3.5,3.5,47,0.00,FEW,,0.00,WeatherDisplay:10.37,2013-07-31 23:03:00,
2013-07-31 19:08:00,81.9,59.7,30.06,SSE,158,0.0,0.0,47,0.00,FEW,,0.00,WeatherDisplay:10.37,2013-07-31 23:08:00,
2013-07-31 19:13:00,81.9,59.7,30.06,WNW,292,0.0,0.0,47,0.00,FEW,,0.00,WeatherDisplay:10.37,2013-07-31 23:13:00,
2013-07-31 19:18:00,81.7,59.5,30.06,NNW,338,0.0,0.0,47,0.00,FEW,,0.00,WeatherDisplay:10.37,2013-07-31 23:18:00,
2013-07-31 19:23:00,81.7,59.5,30.06,WNW,292,3.5,0.0,47,0.00,FEW,,0.00,WeatherDisplay:10.37,2013-07-31 23:23:00,
2013-07-31 19:28:00,81.5,59.3,30.06,West,270,4.8,4.8,47,0.00,FEW,,0.00,WeatherDisplay:10.37,2013-07-31 23:28:00,
2013-07-31 19:33:00,81.5,59.3,30.06,West,270,2.3,0.0,47,0.00,FEW,,0.00,WeatherDisplay:10.37,2013-07-31 23:33:00,
2013-07-31 19:38:00,81.5,59.3,30.06,NW,315,0.0,0.0,47,0.00,FEW,,0.00,WeatherDisplay:10.37,2013-07-31 23:38:00,
2013-07-31 19:43:00,81.3,59.2,30.06,South,180,2.3,2.3,47,0.00,FEW,,0.00,WeatherDisplay:10.37,2013-07-31 23:43:00,
2013-07-31 19:48:00,81.3,59.2,30.06,WNW,292,0.0,0.0,47,0.00,FEW,,0.00,WeatherDisplay:10.37,2013-07-31 23:48:00,
2013-07-31 19:53:00,81.3,59.2,30.06,WNW,292,0.0,0.0,47,0.00,FEW,,0.00,WeatherDisplay:10.37,2013-07-31 23:53:00,
2013-07-31 19:58:00,81.3,59.2,30.06,South,180,3.5,0.0,47,0.00,FEW,,0.00,WeatherDisplay:10.37,2013-07-31 23:58:00,
2013-07-31 20:03:00,81.3,59.2,30.06,WNW,292,4.6,4.6,47,0.00,FEW,,0.00,WeatherDisplay:10.37,2013-08-01 00:03:00,
2013-07-31 20:08:00,81.3,59.2,30.06,West,270,3.5,3.5,47,0.00,FEW,,0.00,WeatherDisplay:10.37,2013-08-01 00:08:00,
2013-07-31 20:13:00,81.3,59.2,30.06,NW,315,2.3,0.0,47,0.00,FEW,,0.00,WeatherDisplay:10.37,2013-08-01 00:13:00,
2013-07-31 20:18:00,81.3,59.2,30.06,South,180,3.9,3.9,47,0.00,FEW,,0.00,WeatherDisplay:10.37,2013-08-01 00:18:00,
2013-07-31 20:23:00,81.3,59.2,30.06,West,270,2.3,0.0,47,0.00,FEW,,0.00,WeatherDisplay:10.37,2013-08-01 00:23:00,
2013-07-31 20:28:00,81.3,59.2,30.09,WNW,292,3.5,3.5,47,0.00,FEW,,0.00,WeatherDisplay:10.37,2013-08-01 00:28:00,
2013-07-31 20:33:00,81.3,59.2,30.09,NW,315,2.3,0.0,47,0.00,FEW,,0.00,WeatherDisplay:10.37,2013-08-01 00:33:00,
2013-07-31 20:38:00,81.3,59.2,30.09,South,180,4.6,4.6,47,0.00,FEW,,0.00,WeatherDisplay:10.37,2013-08-01 00:38:00,
2013-07-31 20:43:00,81.5,59.3,30.09,West,270,4.6,4.6,47,0.00,FEW,,0.00,WeatherDisplay:10.37,2013-08-01 00:43:00,
2013-07-31 20:48:00,81.5,59.3,30.06,WNW,292,4.8,0.0,47,0.00,FEW,,0.00,WeatherDisplay:10.37,2013-08-01 00:48:00,
2013-07-31 20:53:00,81.7,59.5,30.06,West,270,5.8,5.8,47,0.00,FEW,,0.00,WeatherDisplay:10.37,2013-08-01 00:53:00,
2013-07-31 20:58:00,81.7,59.5,30.09,West,270,5.8,5.8,47,0.00,FEW,,0.00,WeatherDisplay:10.37,2013-08-01 00:58:00,
2013-07-31 21:03:00,81.9,59.7,30.09,West,270,3.5,3.5,47,0.00,FEW,,0.00,WeatherDisplay:10.37,2013-08-01 01:03:00,
2013-07-31 21:08:00,81.7,59.5,30.09,West,270,4.6,4.6,47,0.00,FEW,,0.00,WeatherDisplay:10.37,2013-08-01 01:08:00,
2013-07-31 21:13:00,81.7,59.5,30.09,West,270,3.5,3.5,47,0.00,FEW,,0.00,WeatherDisplay:10.37,2013-08-01 01:13:00,
2013-07-31 21:18:00,81.9,59.7,30.09,WNW,292,4.6,4.6,47,0.00,FEW,,0.00,WeatherDisplay:10.37,2013-08-01 01:18:00,
2013-07-31 21:23:00,81.9,59.7,30.09,West,270,5.8,5.8,47,0.00,FEW,,0.00,WeatherDisplay:10.37,2013-08-01 01:23:00,
2013-07-31 21:28:00,81.9,59.7,30.06,WNW,292,4.6,4.6,47,0.00,FEW,,0.00,WeatherDisplay:10.37,2013-08-01 01:28:00,
2013-07-31 21:33:00,81.9,59.7,30.06,WNW,292,3.5,3.5,47,0.00,FEW,,0.00,WeatherDisplay:10.37,2013-08-01 01:33:00,
2013-07-31 21:38:00,81.7,59.5,30.06,West,270,3.5,3.5,47,0.00,FEW,,0.00,WeatherDisplay:10.37,2013-08-01 01:38:00,
2013-07-31 21:43:00,81.9,59.7,30.09,West,270,5.8,5.8,47,0.00,FEW,,0.00,WeatherDisplay:10.37,2013-08-01 01:43:00,
2013-07-31 21:48:00,81.9,59.7,30.09,West,270,3.5,3.5,47,0.00,FEW,,0.00,WeatherDisplay:10.37,2013-08-01 01:48:00,
2013-07-31 21:53:00,81.9,59.7,30.09,WNW,292,3.9,3.9,47,0.00,FEW,,0.00,WeatherDisplay:10.37,2013-08-01 01:53:00,
2013-07-31 21:58:00,81.7,59.5,30.06,West,270,4.6,4.6,47,0.00,FEW,,0.00,WeatherDisplay:10.37,2013-08-01 01:58:00,
2013-07-31 22:03:00,81.7,59.5,30.06,West,270,3.2,3.2,47,0.00,FEW,,0.00,WeatherDisplay:10.37,2013-08-01 02:03:00,
2013-07-31 22:08:00,81.7,59.5,30.06,West,270,3.5,3.5,47,0.00,FEW,,0.00,WeatherDisplay:10.37,2013-08-01 02:08:00,
2013-07-31 22:13:00,81.7,59.5,30.09,WNW,292,3.5,3.5,47,0.00,FEW,,0.00,WeatherDisplay:10.37,2013-08-01 02:13:00,
2013-07-31 22:18:00,81.7,59.5,30.09,West,270,0.0,0.0,47,0.00,FEW,,0.00,WeatherDisplay:10.37,2013-08-01 02:18:00,
2013-07-31 22:23:00,81.7,59.5,30.09,West,270,2.3,2.3,47,0.00,FEW,,0.00,WeatherDisplay:10.37,2013-08-01 02:23:00,
2013-07-31 22:28:00,81.7,59.5,30.06,West,270,4.6,4.6,47,0.00,FEW,,0.00,WeatherDisplay:10.37,2013-08-01 02:28:00,
2013-07-31 22:33:00,81.7,59.5,30.06,West,270,3.5,0.0,47,0.00,FEW,,0.00,WeatherDisplay:10.37,2013-08-01 02:33:00,
2013-07-31 22:38:00,81.7,59.5,30.06,West,270,0.0,0.0,47,0.00,FEW,,0.00,WeatherDisplay:10.37,2013-08-01 02:38:00,
2013-07-31 22:43:00,81.5,59.9,30.06,West,270,0.0,0.0,48,0.00,FEW,,0.00,WeatherDisplay:10.37,2013-08-01 02:43:00,
2013-07-31 22:48:00,81.7,60.1,30.06,West,270,4.6,4.6,48,0.00,FEW,,0.00,WeatherDisplay:10.37,2013-08-01 02:48:00,
2013-07-31 22:53:00,81.7,60.1,30.06,West,270,2.3,2.3,48,0.00,FEW,,0.00,WeatherDisplay:10.37,2013-08-01 02:53:00,
2013-07-31 22:58:00,81.7,59.5,30.06,West,270,2.3,2.3,47,0.00,FEW,,0.00,WeatherDisplay:10.37,2013-08-01 02:58:00,
2013-07-31 23:03:00,81.7,60.1,30.06,West,270,4.6,4.6,48,0.00,FEW,,0.00,WeatherDisplay:10.37,2013-08-01 03:03:00,
2013-07-31 23:08:00,81.7,60.7,30.06,West,270,3.5,3.5,49,0.00,FEW,,0.00,WeatherDisplay:10.37,2013-08-01 03:08:00,
2013-07-31 23:13:00,77.9,77.3,29.88,NW,315,0.0,-999.0,98,-99.99,,,0.00,Acu-Link.com,2013-08-01 03:13:00,
2013-07-31 23:18:00,81.7,60.7,30.06,West,270,3.5,3.5,49,0.00,FEW,,0.00,WeatherDisplay:10.37,2013-08-01 03:18:00,
2013-07-31 23:23:00,81.7,60.7,30.06,West,270,4.6,4.6,49,0.00,FEW,,0.00,WeatherDisplay:10.37,2013-08-01 03:23:00,
2013-07-31 23:28:00,81.7,61.2,30.06,West,270,3.5,3.5,50,0.00,FEW,,0.00,WeatherDisplay:10.37,2013-08-01 03:28:00,
2013-07-31 23:34:00,81.7,60.7,30.06,South,180,2.3,0.0,49,0.00,FEW,,0.00,WeatherDisplay:10.37,2013-08-01 03:34:00,
2013-07-31 23:39:00,81.7,61.2,30.06,West,270,0.0,0.0,50,0.00,FEW,,0.00,WeatherDisplay:10.37,2013-08-01 03:39:00,
2013-07-31 23:43:00,81.5,61.1,30.06,West,270,0.0,0.0,50,0.00,FEW,,0.00,WeatherDisplay:10.37,2013-08-01 03:43:00,
2013-07-31 23:48:00,81.5,61.6,30.06,West,270,0.0,0.0,51,0.00,FEW,,0.00,WeatherDisplay:10.37,2013-08-01 03:48:00,
2013-07-31 23:53:00,81.5,61.6,30.06,West,270,0.0,0.0,51,0.00,FEW,,0.00,WeatherDisplay:10.37,2013-08-01 03:53:00,
2013-07-31 23:58:00,81.5,61.6,30.06,West,270,0.0,0.0,51,0.00,FEW,,0.00,WeatherDisplay:10.37,2013-08-01 03:58:00,